createdAt,value
2018-04-16T00:01:51.143Z,14.10
2018-04-16T00:04:18.841Z,14.00
2018-04-16T00:06:46.426Z,14.00
2018-04-16T00:09:14.031Z,14.00
2018-04-16T00:11:41.653Z,14.00
2018-04-16T00:14:09.246Z,14.00
2018-04-16T00:16:37.638Z,14.00
2018-04-16T00:19:05.226Z,13.90
2018-04-16T00:21:32.849Z,14.00
2018-04-16T00:24:00.439Z,14.00
2018-04-16T00:26:28.057Z,14.00
2018-04-16T00:28:56.422Z,13.90
2018-04-16T00:31:24.043Z,13.90
2018-04-16T00:33:57.412Z,13.90
2018-04-16T00:36:30.734Z,13.90
2018-04-16T00:39:04.040Z,13.90
2018-04-16T00:41:37.335Z,13.90
2018-04-16T00:44:10.494Z,13.90
2018-04-16T00:46:43.717Z,13.90
2018-04-16T00:49:17.025Z,13.90
2018-04-16T00:51:50.358Z,13.90
2018-04-16T00:54:24.414Z,13.90
2018-04-16T00:56:57.878Z,13.80
2018-04-16T00:59:31.101Z,13.90
2018-04-16T01:02:04.321Z,13.80
2018-04-16T01:04:37.698Z,13.90
2018-04-16T01:07:10.830Z,13.90
2018-04-16T01:09:44.982Z,13.80
2018-04-16T01:12:18.178Z,13.80
2018-04-16T01:14:51.491Z,13.90
2018-04-16T01:17:24.779Z,13.80
2018-04-16T01:19:58.056Z,13.90
2018-04-16T01:22:31.401Z,13.80
2018-04-16T01:25:04.633Z,13.80
2018-04-16T01:27:38.086Z,13.80
2018-04-16T01:30:11.274Z,13.80
2018-04-16T01:32:44.545Z,13.80
2018-04-16T01:35:17.763Z,13.80
2018-04-16T01:37:51.188Z,13.80
2018-04-16T01:40:24.546Z,13.80
2018-04-16T01:42:57.876Z,13.80
2018-04-16T01:45:31.110Z,13.80
2018-04-16T01:48:04.358Z,13.80
2018-04-16T01:50:38.490Z,13.80
2018-04-16T01:53:11.742Z,13.70
2018-04-16T01:55:45.037Z,13.80
2018-04-16T01:58:18.429Z,13.80
2018-04-16T02:00:51.786Z,13.80
2018-04-16T02:03:25.238Z,13.80
2018-04-16T02:05:59.226Z,13.70
2018-04-16T02:08:32.630Z,13.70
2018-04-16T02:11:07.362Z,13.70
2018-04-16T02:13:40.768Z,13.70
2018-04-16T02:16:14.726Z,13.80
2018-04-16T02:18:48.128Z,13.70
2018-04-16T02:21:21.394Z,13.80
2018-04-16T02:23:54.734Z,13.80
2018-04-16T02:26:28.143Z,13.70
2018-04-16T02:29:02.299Z,13.70
2018-04-16T02:34:40.382Z,13.70
2018-04-16T02:37:13.734Z,13.70
2018-04-16T02:40:01.107Z,13.60
2018-04-16T02:42:34.271Z,13.60
2018-04-16T02:45:07.518Z,13.60
2018-04-16T02:47:41.606Z,13.50
2018-04-16T02:50:15.007Z,13.50
2018-04-16T02:52:48.311Z,13.50
2018-04-16T02:55:22.415Z,13.50
2018-04-16T02:57:56.480Z,13.50
2018-04-16T03:00:29.888Z,13.40
2018-04-16T03:03:03.092Z,13.50
2018-04-16T03:05:36.386Z,13.50
2018-04-16T03:08:09.775Z,13.50
2018-04-16T03:10:43.242Z,13.40
2018-04-16T03:13:16.611Z,13.40
2018-04-16T03:18:49.595Z,13.40
2018-04-16T03:21:23.034Z,13.40
2018-04-16T03:23:56.254Z,13.40
2018-04-16T03:26:29.523Z,13.40
2018-04-16T03:29:02.850Z,13.40
2018-04-16T03:31:36.107Z,13.40
2018-04-16T03:34:09.452Z,13.40
2018-04-16T03:36:42.727Z,13.40
2018-04-16T03:39:15.970Z,13.40
2018-04-16T03:41:50.001Z,13.40
2018-04-16T03:44:23.248Z,13.30
2018-04-16T03:46:56.641Z,13.40
2018-04-16T03:49:29.840Z,13.40
2018-04-16T03:52:14.178Z,13.40
2018-04-16T03:54:41.777Z,13.40
2018-04-16T03:57:10.158Z,13.40
2018-04-16T03:59:38.523Z,13.40
2018-04-16T04:02:06.157Z,13.30
2018-04-16T04:04:33.756Z,13.30
2018-04-16T04:07:02.113Z,13.30
2018-04-16T04:09:29.744Z,13.30
2018-04-16T04:11:57.337Z,13.40
2018-04-16T04:14:24.965Z,13.40
2018-04-16T04:16:52.559Z,13.40
2018-04-16T04:19:20.182Z,13.40
2018-04-16T04:21:47.777Z,13.40
2018-04-16T04:24:27.506Z,13.40
2018-04-16T04:27:06.958Z,13.40
2018-04-16T04:29:46.402Z,13.40
2018-04-16T04:32:13.995Z,13.30
2018-04-16T04:34:41.620Z,13.30
2018-04-16T04:37:09.214Z,13.30
2018-04-16T04:39:36.839Z,13.30
2018-04-16T04:42:04.430Z,13.30
2018-04-16T04:44:32.787Z,13.30
2018-04-16T04:47:00.407Z,13.20
2018-04-16T04:49:27.998Z,13.30
2018-04-16T04:51:57.133Z,13.20
2018-04-16T04:54:24.743Z,13.20
2018-04-16T04:56:52.357Z,13.20
2018-04-16T04:59:19.997Z,13.20
2018-04-16T05:01:48.383Z,13.20
2018-04-16T05:04:16.736Z,13.20
2018-04-16T05:06:44.358Z,13.10
2018-04-16T05:09:11.951Z,13.20
2018-04-16T05:11:39.578Z,13.20
2018-04-16T05:14:07.178Z,13.20
2018-04-16T05:16:34.795Z,13.20
2018-04-16T05:19:02.391Z,13.20
2018-04-16T05:21:30.026Z,13.20
2018-04-16T05:23:57.628Z,13.20
2018-04-16T05:26:26.016Z,13.20
2018-04-16T05:28:54.388Z,13.20
2018-04-16T05:31:22.009Z,13.20
2018-04-16T05:33:49.614Z,13.20
2018-04-16T05:36:18.009Z,13.20
2018-04-16T05:38:46.372Z,13.20
2018-04-16T05:41:14.771Z,13.20
2018-04-16T05:43:42.364Z,13.20
2018-04-16T05:46:09.995Z,13.20
2018-04-16T05:48:37.602Z,13.20
2018-04-16T05:51:05.218Z,13.20
2018-04-16T05:53:32.819Z,13.30
2018-04-16T05:56:00.410Z,13.20
2018-04-16T05:58:28.034Z,13.20
2018-04-16T06:00:55.630Z,13.20
2018-04-16T06:03:23.242Z,13.20
2018-04-16T06:05:50.835Z,13.30
2018-04-16T06:08:18.454Z,13.30
2018-04-16T06:10:46.059Z,13.30
2018-04-16T06:13:13.682Z,13.30
2018-04-16T06:15:41.286Z,13.30
2018-04-16T06:18:08.905Z,13.30
2018-04-16T06:20:36.502Z,13.40
2018-04-16T06:23:04.126Z,13.40
2018-04-16T06:25:31.723Z,13.40
2018-04-16T06:27:59.347Z,13.40
2018-04-16T06:30:26.942Z,13.40
2018-04-16T06:32:54.570Z,13.50
2018-04-16T06:35:22.164Z,13.50
2018-04-16T06:37:49.786Z,13.50
2018-04-16T06:40:17.386Z,13.50
2018-04-16T06:42:45.014Z,13.60
2018-04-16T06:45:12.600Z,13.60
2018-04-16T06:47:40.244Z,13.70
2018-04-16T06:50:07.850Z,13.70
2018-04-16T06:52:35.469Z,13.70
2018-04-16T06:55:03.085Z,13.70
2018-04-16T06:57:30.705Z,13.80
2018-04-16T06:59:58.296Z,13.80
2018-04-16T07:02:26.723Z,13.90
2018-04-16T07:04:54.425Z,13.80
2018-04-16T07:07:22.026Z,13.90
2018-04-16T07:09:49.642Z,14.00
2018-04-16T07:12:17.250Z,14.00
2018-04-16T07:14:44.881Z,14.00
2018-04-16T07:17:13.253Z,14.10
2018-04-16T07:19:41.654Z,14.20
2018-04-16T07:22:10.078Z,14.20
2018-04-16T07:24:37.702Z,14.20
2018-04-16T07:27:05.309Z,14.30
2018-04-16T07:29:35.706Z,14.30
2018-04-16T07:32:04.241Z,14.40
2018-04-16T07:34:31.871Z,14.30
2018-04-16T07:36:59.474Z,14.40
2018-04-16T07:39:27.884Z,14.50
2018-04-16T07:41:55.488Z,14.50
2018-04-16T07:44:23.095Z,14.60
2018-04-16T07:46:50.718Z,14.60
2018-04-16T07:49:18.315Z,14.70
2018-04-16T07:51:45.946Z,14.80
2018-04-16T07:54:13.550Z,14.80
2018-04-16T07:56:41.183Z,14.80
2018-04-16T07:59:09.574Z,14.90
2018-04-16T08:01:37.198Z,14.90
2018-04-16T08:04:04.801Z,15.00
2018-04-16T08:06:32.519Z,15.00
2018-04-16T08:09:00.153Z,15.00
2018-04-16T08:11:27.766Z,15.10
2018-04-16T08:13:56.129Z,15.20
2018-04-16T08:16:23.753Z,15.10
2018-04-16T08:18:51.344Z,15.20
2018-04-16T08:21:18.973Z,15.30
2018-04-16T08:23:46.564Z,15.40
2018-04-16T08:26:14.182Z,15.40
2018-04-16T08:28:41.778Z,15.50
2018-04-16T08:31:09.399Z,15.50
2018-04-16T08:33:36.995Z,15.60
2018-04-16T08:36:04.606Z,15.70
2018-04-16T08:38:32.210Z,15.70
2018-04-16T08:40:59.900Z,15.80
2018-04-16T08:43:27.495Z,15.80
2018-04-16T08:45:55.092Z,15.80
2018-04-16T08:48:22.710Z,15.90
2018-04-16T08:50:50.306Z,16.00
2018-04-16T08:53:17.931Z,16.10
2018-04-16T08:55:45.530Z,16.20
2018-04-16T08:58:13.154Z,16.30
2018-04-16T09:00:40.784Z,16.40
2018-04-16T09:03:08.398Z,16.50
2018-04-16T09:05:35.999Z,16.60
2018-04-16T09:08:03.619Z,16.60
2018-04-16T09:10:31.226Z,16.70
2018-04-16T09:12:58.841Z,16.80
2018-04-16T09:15:26.430Z,16.90
2018-04-16T09:17:54.050Z,16.90
2018-04-16T09:20:21.644Z,17.00
2018-04-16T09:22:49.273Z,17.10
2018-04-16T09:25:16.865Z,17.20
2018-04-16T09:27:44.490Z,17.40
2018-04-16T09:30:12.086Z,17.50
2018-04-16T09:32:39.809Z,17.60
2018-04-16T09:35:07.554Z,17.80
2018-04-16T09:37:35.981Z,18.10
2018-04-16T09:40:03.633Z,18.00
2018-04-16T09:42:31.268Z,18.20
2018-04-16T09:44:59.662Z,18.20
2018-04-16T09:47:27.262Z,18.30
2018-04-16T09:49:54.892Z,18.40
2018-04-16T09:52:22.543Z,18.40
2018-04-16T09:54:50.190Z,18.50
2018-04-16T09:57:19.051Z,18.50
2018-04-16T09:59:46.674Z,18.50
2018-04-16T10:02:20.002Z,18.70
2018-04-16T10:04:47.624Z,18.80
2018-04-16T10:07:15.218Z,19.00
2018-04-16T10:09:44.766Z,19.10
2018-04-16T10:12:13.214Z,19.30
2018-04-16T10:14:40.843Z,19.30
2018-04-16T10:17:08.450Z,19.40
2018-04-16T10:19:36.061Z,19.50
2018-04-16T10:22:03.652Z,19.50
2018-04-16T10:24:31.288Z,19.60
2018-04-16T10:26:58.887Z,19.50
2018-04-16T10:29:27.278Z,19.60
2018-04-16T10:31:55.637Z,19.70
2018-04-16T10:34:23.250Z,19.60
2018-04-16T10:36:50.839Z,19.70
2018-04-16T10:39:18.461Z,19.80
2018-04-16T10:41:46.064Z,19.90
2018-04-16T10:44:13.693Z,20.00
2018-04-16T10:46:41.299Z,20.20
2018-04-16T10:49:09.703Z,20.40
2018-04-16T10:51:38.076Z,20.50
2018-04-16T10:54:06.467Z,20.60
2018-04-16T10:56:34.073Z,20.60
2018-04-16T10:59:01.737Z,20.70
2018-04-16T11:01:29.367Z,20.70
2018-04-16T11:03:56.958Z,20.70
2018-04-16T11:06:24.580Z,20.80
2018-04-16T11:08:52.180Z,20.90
2018-04-16T11:11:20.049Z,20.90
2018-04-16T11:13:47.642Z,20.90
2018-04-16T11:16:15.261Z,20.90
2018-04-16T11:18:42.858Z,20.90
2018-04-16T11:21:11.983Z,20.90
2018-04-16T11:23:40.341Z,21.00
2018-04-16T11:26:07.961Z,20.90
2018-04-16T11:28:35.550Z,21.00
2018-04-16T11:31:03.178Z,21.10
2018-04-16T11:33:30.795Z,21.10
2018-04-16T11:35:59.198Z,21.20
2018-04-16T11:38:26.794Z,21.10
2018-04-16T11:40:54.384Z,21.20
2018-04-16T11:43:22.042Z,21.20
2018-04-16T11:45:50.399Z,21.30
2018-04-16T11:48:18.049Z,21.30
2018-04-16T11:50:45.642Z,21.40
2018-04-16T11:53:13.270Z,21.40
2018-04-16T11:55:40.862Z,21.50
2018-04-16T11:58:09.246Z,21.60
2018-04-16T12:00:37.610Z,21.70
2018-04-16T12:03:05.242Z,21.60
2018-04-16T12:05:32.832Z,21.70
2018-04-16T12:08:00.459Z,21.80
2018-04-16T12:10:28.128Z,21.80
2018-04-16T12:12:55.750Z,21.90
2018-04-16T12:15:23.347Z,22.00
2018-04-16T12:17:50.982Z,22.10
2018-04-16T12:20:18.587Z,22.10
2018-04-16T12:22:46.214Z,22.30
2018-04-16T12:25:13.810Z,22.30
2018-04-16T12:27:41.477Z,22.30
2018-04-16T12:30:09.075Z,22.40
2018-04-16T12:32:37.461Z,22.40
2018-04-16T12:35:05.261Z,22.40
2018-04-16T12:37:32.887Z,22.50
2018-04-16T12:40:00.479Z,22.50
2018-04-16T12:42:28.077Z,22.50
2018-04-16T12:44:55.704Z,22.50
2018-04-16T12:47:23.306Z,22.40
2018-04-16T12:49:51.686Z,22.60
2018-04-16T12:52:20.059Z,22.60
2018-04-16T12:54:47.700Z,22.60
2018-04-16T12:57:17.785Z,22.70
2018-04-16T12:59:45.431Z,22.70
2018-04-16T13:02:13.031Z,22.70
2018-04-16T13:04:40.670Z,22.80
2018-04-16T13:07:08.343Z,22.90
2018-04-16T13:09:35.963Z,22.90
2018-04-16T13:12:04.338Z,23.10
2018-04-16T13:14:32.730Z,23.20
2018-04-16T13:17:00.323Z,23.10
2018-04-16T13:19:27.947Z,23.20
2018-04-16T13:21:56.475Z,23.20
2018-04-16T13:24:24.896Z,23.10
2018-04-16T13:26:53.254Z,23.10
2018-04-16T13:29:20.878Z,23.00
2018-04-16T13:31:48.473Z,23.00
2018-04-16T13:34:16.887Z,23.00
2018-04-16T13:36:46.619Z,22.90
2018-04-16T13:39:14.358Z,22.90
2018-04-16T13:41:42.746Z,22.90
2018-04-16T13:44:10.377Z,22.80
2018-04-16T13:46:37.968Z,22.90
2018-04-16T13:49:05.594Z,22.90
2018-04-16T13:51:33.211Z,22.90
2018-04-16T13:54:00.798Z,22.80
2018-04-16T13:56:28.418Z,22.80
2018-04-16T13:58:56.019Z,22.70
2018-04-16T14:01:23.637Z,22.70
2018-04-16T14:03:51.229Z,22.70
2018-04-16T14:06:18.852Z,22.60
2018-04-16T14:08:46.471Z,22.60
2018-04-16T14:11:14.106Z,22.50
2018-04-16T14:13:41.754Z,22.50
2018-04-16T14:16:09.398Z,22.40
2018-04-16T14:18:36.996Z,22.40
2018-04-16T14:21:04.662Z,22.30
2018-04-16T14:23:32.266Z,22.30
2018-04-16T14:26:00.653Z,22.20
2018-04-16T14:28:29.015Z,22.10
2018-04-16T14:30:56.655Z,22.10
2018-04-16T14:33:24.250Z,22.10
2018-04-16T14:35:52.619Z,22.10
2018-04-16T14:38:21.015Z,22.10
2018-04-16T14:40:48.614Z,22.00
2018-04-16T14:43:16.229Z,22.10
2018-04-16T14:45:44.590Z,22.10
2018-04-16T14:48:12.208Z,22.10
2018-04-16T14:50:39.814Z,22.10
2018-04-16T14:53:07.451Z,22.20
2018-04-16T14:55:35.048Z,22.20
2018-04-16T14:58:03.404Z,22.20
2018-04-16T15:00:31.030Z,22.20
2018-04-16T15:02:59.000Z,22.30
2018-04-16T15:05:26.627Z,22.20
2018-04-16T15:07:54.214Z,22.00
2018-04-16T15:10:21.810Z,21.90
2018-04-16T15:12:49.427Z,21.70
2018-04-16T15:15:17.013Z,21.60
2018-04-16T15:17:44.649Z,21.50
2018-04-16T15:20:12.243Z,21.40
2018-04-16T15:22:39.874Z,21.30
2018-04-16T15:25:07.461Z,21.30
2018-04-16T15:27:35.061Z,21.20
2018-04-16T15:30:03.452Z,21.00
2018-04-16T15:32:31.042Z,21.00
2018-04-16T15:34:58.671Z,20.90
2018-04-16T15:37:27.026Z,20.80
2018-04-16T15:39:55.417Z,20.70
2018-04-16T15:42:23.776Z,20.60
2018-04-16T15:44:51.401Z,20.60
2018-04-16T15:47:18.995Z,20.60
2018-04-16T15:49:48.572Z,20.40
2018-04-16T15:52:16.182Z,20.30
2018-04-16T15:54:44.574Z,20.20
2018-04-16T15:57:13.247Z,20.10
2018-04-16T15:59:41.610Z,20.00
2018-04-16T16:02:09.235Z,20.00
2018-04-16T16:04:36.836Z,20.00
2018-04-16T16:07:05.361Z,19.80
2018-04-16T16:09:32.958Z,19.70
2018-04-16T16:12:00.594Z,19.70
2018-04-16T16:14:28.188Z,19.70
2018-04-16T16:16:56.801Z,19.50
2018-04-16T16:19:24.415Z,19.50
2018-04-16T16:21:52.254Z,19.40
2018-04-16T16:24:20.151Z,19.40
2018-04-16T16:26:47.915Z,19.30
2018-04-16T16:29:15.791Z,19.20
2018-04-16T16:31:43.548Z,19.10
2018-04-16T16:34:11.139Z,19.10
2018-04-16T16:36:38.766Z,19.00
2018-04-16T16:39:06.521Z,19.00
2018-04-16T16:41:34.143Z,18.90
2018-04-16T16:44:02.786Z,18.80
2018-04-16T16:46:30.670Z,18.80
2018-04-16T16:48:59.330Z,18.80
2018-04-16T16:51:27.212Z,18.70
2018-04-16T16:53:54.817Z,18.70
2018-04-16T16:56:22.524Z,18.70
2018-04-16T16:58:50.123Z,18.70
2018-04-16T17:01:18.698Z,18.60
2018-04-16T17:03:47.064Z,18.60
2018-04-16T17:06:14.694Z,18.60
2018-04-16T17:08:42.292Z,18.60
2018-04-16T17:11:10.655Z,18.60
2018-04-16T17:13:38.286Z,18.60
2018-04-16T17:16:05.885Z,18.60
2018-04-16T17:18:33.508Z,18.60
2018-04-16T17:21:01.108Z,18.60
2018-04-16T17:23:28.731Z,18.60
2018-04-16T17:25:56.330Z,18.60
2018-04-16T17:28:23.953Z,18.70
2018-04-16T17:30:51.551Z,18.70
2018-04-16T17:33:19.176Z,18.70
2018-04-16T17:35:46.802Z,18.60
2018-04-16T17:38:15.199Z,18.60
2018-04-16T17:40:42.799Z,18.60
2018-04-16T17:43:10.420Z,18.70
2018-04-16T17:45:38.028Z,18.70
2018-04-16T17:48:05.658Z,18.70
2018-04-16T17:50:33.261Z,18.60
2018-04-16T17:53:01.638Z,18.60
2018-04-16T17:55:29.263Z,18.50
2018-04-16T17:57:56.863Z,18.60
2018-04-16T18:00:25.271Z,18.60
2018-04-16T18:02:52.867Z,18.50
2018-04-16T18:05:20.499Z,18.50
2018-04-16T18:07:48.094Z,18.50
2018-04-16T18:10:15.718Z,18.50
2018-04-16T18:12:43.323Z,18.50
2018-04-16T18:15:10.948Z,18.40
2018-04-16T18:17:38.543Z,18.40
2018-04-16T18:20:06.184Z,18.40
2018-04-16T18:22:33.856Z,18.30
2018-04-16T18:25:01.482Z,18.30
2018-04-16T18:27:29.079Z,18.20
2018-04-16T18:29:56.707Z,18.20
2018-04-16T18:32:24.303Z,18.20
2018-04-16T18:34:51.923Z,18.10
2018-04-16T18:37:19.528Z,18.10
2018-04-16T18:39:47.150Z,18.10
2018-04-16T18:42:14.851Z,18.00
2018-04-16T18:44:42.471Z,18.00
2018-04-16T18:47:10.071Z,17.90
2018-04-16T18:49:37.691Z,17.90
2018-04-16T18:52:05.289Z,17.90
2018-04-16T18:54:32.904Z,17.80
2018-04-16T18:57:01.265Z,17.70
2018-04-16T18:59:28.894Z,17.70
2018-04-16T19:01:56.560Z,17.70
2018-04-16T19:04:24.194Z,17.70
2018-04-16T19:06:51.811Z,17.60
2018-04-16T19:09:20.191Z,17.60
2018-04-16T19:11:47.917Z,17.50
2018-04-16T19:14:15.518Z,17.50
2018-04-16T19:16:43.147Z,17.50
2018-04-16T19:19:10.746Z,17.40
2018-04-16T19:21:44.166Z,17.40
2018-04-16T19:24:11.787Z,17.40
2018-04-16T19:26:39.421Z,17.30
2018-04-16T19:29:07.014Z,17.20
2018-04-16T19:31:34.640Z,17.20
2018-04-16T19:34:07.927Z,17.20
2018-04-16T19:36:35.546Z,17.10
2018-04-16T19:39:03.918Z,17.10
2018-04-16T19:41:38.031Z,17.10
2018-04-16T19:44:06.392Z,17.00
2018-04-16T19:46:34.034Z,17.00
2018-04-16T19:49:07.463Z,17.00
2018-04-16T19:51:35.865Z,17.00
2018-04-16T19:54:04.227Z,16.90
2018-04-16T19:56:38.332Z,16.90
2018-04-16T19:59:05.934Z,16.90
2018-04-16T20:01:33.542Z,16.80
2018-04-16T20:04:01.166Z,16.80
2018-04-16T20:06:29.357Z,16.80
2018-04-16T20:08:56.983Z,16.70
2018-04-16T20:11:24.577Z,16.70
2018-04-16T20:13:52.208Z,16.70
2018-04-16T20:16:19.799Z,16.70
2018-04-16T20:18:47.424Z,16.60
2018-04-16T20:21:15.016Z,16.60
2018-04-16T20:23:42.650Z,16.60
2018-04-16T20:26:11.008Z,16.50
2018-04-16T20:28:39.376Z,16.40
2018-04-16T20:31:07.774Z,16.40
2018-04-16T20:33:36.141Z,16.40
2018-04-16T20:36:04.538Z,16.30
2018-04-16T20:38:32.148Z,16.30
2018-04-16T20:40:59.763Z,16.30
2018-04-16T20:43:27.359Z,16.30
2018-04-16T20:45:54.983Z,16.30
2018-04-16T20:48:22.591Z,16.30
2018-04-16T20:50:50.740Z,16.30
2018-04-16T20:53:18.334Z,16.20
2018-04-16T20:55:46.260Z,16.20
2018-04-16T20:58:13.859Z,16.20
2018-04-16T21:00:41.482Z,16.20
2018-04-16T21:03:09.076Z,16.20
2018-04-16T21:05:36.734Z,16.20
2018-04-16T21:08:04.335Z,16.20
2018-04-16T21:10:32.722Z,16.20
2018-04-16T21:13:00.320Z,16.10
2018-04-16T21:15:27.911Z,16.20
2018-04-16T21:17:57.051Z,16.10
2018-04-16T21:20:24.651Z,16.10
2018-04-16T21:22:52.274Z,16.20
2018-04-16T21:25:19.871Z,16.20
2018-04-16T21:27:47.508Z,16.20
2018-04-16T21:30:15.111Z,16.20
2018-04-16T21:32:43.497Z,16.10
2018-04-16T21:35:12.597Z,16.10
2018-04-16T21:37:40.991Z,16.10
2018-04-16T21:40:09.574Z,16.10
2018-04-16T21:42:37.975Z,16.10
2018-04-16T21:45:05.567Z,16.00
2018-04-16T21:47:33.199Z,16.00
2018-04-16T21:50:00.786Z,16.00
2018-04-16T21:52:28.421Z,16.00
2018-04-16T21:54:56.006Z,16.00
2018-04-16T21:57:23.594Z,16.00
2018-04-16T21:59:51.995Z,16.00
2018-04-16T22:02:20.347Z,16.00
2018-04-16T22:04:48.202Z,15.90
2018-04-16T22:07:15.790Z,16.00
2018-04-16T22:09:44.186Z,15.90
2018-04-16T22:12:11.774Z,15.90
2018-04-16T22:14:39.358Z,15.90
2018-04-16T22:17:06.969Z,15.90
2018-04-16T22:19:34.564Z,15.90
2018-04-16T22:22:02.184Z,15.90
2018-04-16T22:24:30.539Z,15.90
2018-04-16T22:26:58.158Z,15.80
2018-04-16T22:29:25.754Z,15.90
2018-04-16T22:31:54.138Z,15.80
2018-04-16T22:34:21.774Z,15.80
2018-04-16T22:36:49.396Z,15.80
2018-04-16T22:39:16.999Z,15.80
2018-04-16T22:41:44.623Z,15.80
2018-04-16T22:44:12.209Z,15.80
2018-04-16T22:46:39.794Z,15.80
2018-04-16T22:49:07.430Z,15.70
2018-04-16T22:51:35.015Z,15.70
2018-04-16T22:54:02.611Z,15.70
2018-04-16T22:56:31.002Z,15.60
2018-04-16T22:58:58.596Z,15.60
2018-04-16T23:01:26.186Z,15.70
2018-04-16T23:03:54.579Z,15.60
2018-04-16T23:06:22.946Z,15.60
2018-04-16T23:08:50.537Z,15.50
2018-04-16T23:11:18.159Z,15.60
2018-04-16T23:13:45.755Z,15.60
2018-04-16T23:16:13.353Z,15.50
2018-04-16T23:18:40.976Z,15.50
2018-04-16T23:21:08.570Z,15.50
2018-04-16T23:23:36.194Z,15.50
2018-04-16T23:26:03.822Z,15.50
2018-04-16T23:28:31.415Z,15.50
2018-04-16T23:30:59.803Z,15.40
2018-04-16T23:33:27.398Z,15.40
2018-04-16T23:35:55.018Z,15.50
2018-04-16T23:38:22.612Z,15.40
2018-04-16T23:40:50.202Z,15.40
2018-04-16T23:43:17.865Z,15.40
2018-04-16T23:45:45.454Z,15.40
2018-04-16T23:48:13.809Z,15.40
2018-04-16T23:50:41.438Z,15.30
2018-04-16T23:53:09.023Z,15.40
2018-04-16T23:55:36.609Z,15.40
2018-04-16T23:58:05.003Z,15.40
